createdAt,value
2023-02-12T00:01:12.597Z,88.99
2023-02-12T00:03:40.086Z,89.17
2023-02-12T00:06:07.865Z,89.22
2023-02-12T00:08:34.983Z,89.25
2023-02-12T00:11:09.720Z,89.07
2023-02-12T00:13:36.678Z,89.22
2023-02-12T00:16:19.470Z,89.21
2023-02-12T00:18:47.115Z,89.37
2023-02-12T00:21:14.846Z,89.22
2023-02-12T00:23:41.745Z,89.28
2023-02-12T00:26:10.676Z,89.35
2023-02-12T00:28:38.240Z,89.31
2023-02-12T00:31:13.759Z,89.22
2023-02-12T00:33:41.224Z,89.14
2023-02-12T00:36:09.752Z,89.24
2023-02-12T00:38:36.514Z,89.04
2023-02-12T00:41:03.055Z,89.17
2023-02-12T00:43:29.548Z,89.06
2023-02-12T00:45:56.619Z,88.94
2023-02-12T00:48:23.370Z,89.31
2023-02-12T00:50:50.399Z,89.26
2023-02-12T00:53:17.748Z,88.92
2023-02-12T00:55:44.381Z,89.07
2023-02-12T00:58:11.282Z,89.10
2023-02-12T01:00:37.938Z,88.94
2023-02-12T01:03:09.355Z,88.84
2023-02-12T01:05:37.257Z,89.18
2023-02-12T01:08:05.207Z,88.94
2023-02-12T01:10:31.843Z,89.06
2023-02-12T01:12:58.434Z,89.06
2023-02-12T01:15:24.977Z,88.87
2023-02-12T01:17:53.389Z,89.27
2023-02-12T01:20:21.972Z,88.93
2023-02-12T01:22:48.778Z,88.81
2023-02-12T01:25:15.324Z,89.03
2023-02-12T01:27:41.854Z,88.69
2023-02-12T01:30:12.555Z,88.67
2023-02-12T01:32:39.171Z,88.83
2023-02-12T01:35:06.690Z,88.95
2023-02-12T01:37:35.775Z,88.82
2023-02-12T01:40:02.322Z,88.77
2023-02-12T01:42:28.895Z,88.76
2023-02-12T01:45:14.308Z,89.04
2023-02-12T01:47:42.396Z,88.50
2023-02-12T01:50:12.953Z,88.77
2023-02-12T01:52:43.256Z,88.94
2023-02-12T01:55:11.486Z,88.71
2023-02-12T01:57:42.747Z,88.83
2023-02-12T02:00:16.798Z,88.79
2023-02-12T02:02:51.441Z,88.61
2023-02-12T02:05:24.860Z,88.87
2023-02-12T02:07:53.192Z,89.01
2023-02-12T02:10:19.805Z,88.95
2023-02-12T02:13:04.969Z,88.69
2023-02-12T02:15:32.554Z,88.95
2023-02-12T02:17:59.174Z,88.91
2023-02-12T02:20:48.779Z,88.68
2023-02-12T02:23:36.517Z,88.63
2023-02-12T02:26:16.763Z,88.90
2023-02-12T02:28:57.833Z,88.87
2023-02-12T02:31:33.364Z,88.93
2023-02-12T02:34:33.845Z,88.58
2023-02-12T02:37:25.538Z,88.82
2023-02-12T02:39:57.837Z,89.07
2023-02-12T02:42:41.407Z,88.60
2023-02-12T02:45:21.712Z,88.92
2023-02-12T02:48:14.218Z,88.72
2023-02-12T02:50:46.883Z,88.81
2023-02-12T02:53:27.005Z,88.67
2023-02-12T02:55:57.284Z,88.66
2023-02-12T02:58:29.429Z,88.62
2023-02-12T03:01:04.760Z,88.82
2023-02-12T03:03:45.653Z,88.67
2023-02-12T03:06:40.127Z,88.27
2023-02-12T03:09:16.397Z,88.87
2023-02-12T03:11:43.289Z,88.82
2023-02-12T03:14:29.680Z,88.53
2023-02-12T03:17:18.504Z,88.55
2023-02-12T03:19:55.120Z,88.72
2023-02-12T03:22:26.870Z,88.42
2023-02-12T03:25:04.735Z,88.28
2023-02-12T03:27:33.276Z,88.59
2023-02-12T03:30:00.883Z,88.47
2023-02-12T03:32:33.934Z,88.31
2023-02-12T03:35:38.506Z,88.63
2023-02-12T03:38:30.932Z,88.14
2023-02-12T03:41:20.377Z,88.18
2023-02-12T03:43:52.594Z,88.35
2023-02-12T03:46:41.704Z,88.44
2023-02-12T03:49:21.389Z,88.26
2023-02-12T03:51:48.386Z,88.32
2023-02-12T03:54:18.008Z,88.59
2023-02-12T03:57:06.841Z,88.41
2023-02-12T03:59:36.902Z,88.27
2023-02-12T04:02:04.081Z,88.38
2023-02-12T04:04:31.458Z,88.26
2023-02-12T04:06:58.584Z,88.44
2023-02-12T04:09:27.867Z,88.28
2023-02-12T04:12:25.260Z,88.20
2023-02-12T04:15:00.195Z,88.13
2023-02-12T04:17:40.660Z,88.26
2023-02-12T04:20:44.345Z,88.34
2023-02-12T04:23:27.682Z,88.47
2023-02-12T04:26:39.217Z,88.28
2023-02-12T04:29:18.834Z,88.18
2023-02-12T04:32:22.808Z,88.68
2023-02-12T04:34:59.322Z,88.47
2023-02-12T04:37:25.740Z,88.49
2023-02-12T04:39:53.505Z,88.67
2023-02-12T04:42:20.349Z,88.54
2023-02-12T04:44:46.924Z,88.42
2023-02-12T04:47:14.836Z,88.20
2023-02-12T04:49:41.717Z,88.69
2023-02-12T04:52:09.773Z,88.45
2023-02-12T04:54:36.513Z,88.50
2023-02-12T04:57:03.958Z,88.77
2023-02-12T04:59:30.455Z,88.52
2023-02-12T05:01:56.949Z,88.63
2023-02-12T05:04:23.448Z,88.49
2023-02-12T05:06:49.956Z,88.89
2023-02-12T05:09:19.019Z,88.45
2023-02-12T05:11:46.198Z,88.72
2023-02-12T05:14:13.010Z,88.64
2023-02-12T05:16:39.753Z,88.87
2023-02-12T05:19:09.598Z,88.78
2023-02-12T05:21:37.112Z,88.93
2023-02-12T05:24:04.004Z,88.61
2023-02-12T05:26:30.510Z,88.74
2023-02-12T05:28:57.045Z,88.80
2023-02-12T05:31:25.957Z,88.69
2023-02-12T05:33:52.872Z,88.84
2023-02-12T05:36:24.455Z,88.76
2023-02-12T05:38:53.080Z,88.94
2023-02-12T05:41:22.078Z,88.62
2023-02-12T05:43:49.953Z,88.51
2023-02-12T05:46:18.240Z,88.59
2023-02-12T05:48:44.736Z,88.73
2023-02-12T05:51:17.577Z,88.69
2023-02-12T05:53:44.435Z,88.80
2023-02-12T05:56:11.067Z,88.57
2023-02-12T05:58:38.037Z,88.52
2023-02-12T06:01:13.972Z,88.70
2023-02-12T06:03:40.699Z,88.56
2023-02-12T06:06:12.078Z,88.64
2023-02-12T06:08:39.160Z,88.53
2023-02-12T06:11:08.693Z,88.57
2023-02-12T06:13:35.266Z,88.64
2023-02-12T06:16:02.256Z,88.79
2023-02-12T06:18:29.169Z,88.75
2023-02-12T06:20:58.060Z,88.80
2023-02-12T06:23:25.556Z,88.72
2023-02-12T06:25:59.050Z,88.39
2023-02-12T06:28:25.651Z,88.57
2023-02-12T06:30:52.550Z,88.27
2023-02-12T06:33:19.188Z,88.59
2023-02-12T06:35:46.061Z,88.29
2023-02-12T06:38:19.686Z,88.43
2023-02-12T06:40:46.244Z,88.33
2023-02-12T06:43:12.758Z,88.42
2023-02-12T06:45:39.257Z,88.30
2023-02-12T06:48:06.533Z,88.61
2023-02-12T06:50:33.440Z,88.63
2023-02-12T06:53:05.331Z,88.45
2023-02-12T06:55:33.574Z,88.67
2023-02-12T06:58:00.109Z,88.73
2023-02-12T07:00:26.787Z,88.76
2023-02-12T07:02:58.037Z,88.81
2023-02-12T07:05:25.053Z,88.58
2023-02-12T07:07:52.182Z,88.62
2023-02-12T07:10:21.255Z,88.69
2023-02-12T07:12:48.090Z,88.96
2023-02-12T07:15:14.818Z,88.55
2023-02-12T07:17:41.458Z,88.86
2023-02-12T07:20:08.529Z,88.99
2023-02-12T07:22:37.973Z,88.75
2023-02-12T07:25:04.856Z,88.63
2023-02-12T07:27:31.379Z,88.71
2023-02-12T07:29:58.111Z,88.81
2023-02-12T07:32:24.796Z,88.88
2023-02-12T07:34:51.395Z,88.45
2023-02-12T07:37:22.881Z,88.48
2023-02-12T07:39:50.080Z,88.49
2023-02-12T07:42:16.653Z,88.58
2023-02-12T07:44:45.817Z,88.46
2023-02-12T07:47:12.462Z,88.70
2023-02-12T07:49:38.983Z,88.41
2023-02-12T07:52:05.496Z,88.64
2023-02-12T07:54:32.007Z,88.53
2023-02-12T07:56:58.560Z,88.57
2023-02-12T07:59:25.163Z,87.98
2023-02-12T08:01:53.019Z,88.17
2023-02-12T08:04:22.301Z,88.06
2023-02-12T08:06:51.623Z,88.13
2023-02-12T08:09:21.582Z,88.17
2023-02-12T08:11:48.550Z,88.29
2023-02-12T08:14:17.317Z,88.71
2023-02-12T08:16:45.540Z,88.84
2023-02-12T08:19:20.498Z,88.32
2023-02-12T08:21:53.055Z,88.73
2023-02-12T08:24:19.865Z,88.36
2023-02-12T08:26:46.479Z,88.62
2023-02-12T08:29:15.750Z,88.63
2023-02-12T08:31:45.388Z,88.30
2023-02-12T08:34:23.273Z,88.06
2023-02-12T08:36:51.538Z,88.28
2023-02-12T08:39:18.573Z,88.02
2023-02-12T08:41:46.201Z,87.82
2023-02-12T08:44:13.407Z,87.47
2023-02-12T08:46:46.779Z,87.52
2023-02-12T08:49:25.215Z,87.60
2023-02-12T08:51:54.146Z,87.69
2023-02-12T08:54:23.967Z,87.64
2023-02-12T08:56:51.130Z,87.21
2023-02-12T08:59:18.230Z,87.34
2023-02-12T09:01:45.355Z,87.38
2023-02-12T09:04:18.202Z,87.39
2023-02-12T09:06:46.609Z,87.08
2023-02-12T09:09:13.625Z,87.01
2023-02-12T09:11:40.595Z,86.77
2023-02-12T09:14:10.645Z,86.44
2023-02-12T09:16:38.087Z,86.21
2023-02-12T09:19:04.641Z,86.25
2023-02-12T09:21:31.464Z,85.97
2023-02-12T09:23:58.039Z,86.21
2023-02-12T09:26:28.144Z,86.22
2023-02-12T09:28:55.432Z,85.80
2023-02-12T09:31:26.657Z,85.81
2023-02-12T09:33:55.661Z,85.21
2023-02-12T09:36:22.558Z,85.07
2023-02-12T09:38:49.820Z,85.00
2023-02-12T09:41:38.199Z,84.71
2023-02-12T09:44:36.240Z,84.27
2023-02-12T09:47:05.768Z,83.47
2023-02-12T09:50:23.826Z,83.77
2023-02-12T09:52:51.504Z,82.77
2023-02-12T09:55:19.537Z,82.76
2023-02-12T09:57:46.688Z,82.55
2023-02-12T10:00:22.798Z,82.38
2023-02-12T10:02:53.819Z,82.16
2023-02-12T10:05:25.442Z,81.18
2023-02-12T10:08:06.532Z,81.03
2023-02-12T10:10:45.074Z,80.45
2023-02-12T10:13:26.768Z,79.51
2023-02-12T10:16:06.549Z,78.52
2023-02-12T10:18:45.135Z,78.37
2023-02-12T10:21:43.946Z,77.23
2023-02-12T10:24:31.686Z,77.30
2023-02-12T10:27:01.978Z,77.28
2023-02-12T10:29:39.801Z,76.56
2023-02-12T10:39:14.624Z,76.16
2023-02-12T10:41:53.184Z,76.02
2023-02-12T10:44:19.858Z,75.83
2023-02-12T10:46:46.429Z,76.13
2023-02-12T10:49:17.105Z,75.63
2023-02-12T10:52:12.913Z,75.37
2023-02-12T10:54:43.529Z,73.65
2023-02-12T10:57:28.020Z,73.65
2023-02-12T10:59:58.064Z,74.10
2023-02-12T11:02:24.647Z,73.86
2023-02-12T11:04:53.158Z,73.26
2023-02-12T11:07:21.253Z,73.28
2023-02-12T11:09:50.328Z,74.10
2023-02-12T11:12:25.863Z,74.02
2023-02-12T11:14:55.376Z,73.96
2023-02-12T11:17:38.770Z,74.21
2023-02-12T11:20:28.383Z,74.34
2023-02-12T11:23:04.327Z,74.55
2023-02-12T11:25:34.059Z,74.90
2023-02-12T11:28:14.305Z,74.74
2023-02-12T11:30:59.926Z,74.82
2023-02-12T11:33:29.980Z,74.82
2023-02-12T11:36:06.847Z,74.04
2023-02-12T11:38:37.778Z,74.37
2023-02-12T11:41:18.697Z,74.35
2023-02-12T11:43:45.562Z,74.58
2023-02-12T11:46:20.475Z,73.71
2023-02-12T11:48:47.731Z,73.63
2023-02-12T11:51:40.668Z,73.69
2023-02-12T11:54:07.226Z,73.59
2023-02-12T11:56:43.522Z,73.54
2023-02-12T11:59:31.400Z,73.12
2023-02-12T12:02:03.918Z,73.72
2023-02-12T12:04:34.086Z,72.88
2023-02-12T12:07:16.787Z,72.95
2023-02-12T12:09:49.674Z,73.12
2023-02-12T12:12:23.116Z,73.40
2023-02-12T12:15:12.993Z,72.96
2023-02-12T12:18:15.188Z,72.88
2023-02-12T12:20:49.205Z,73.18
2023-02-12T12:23:40.837Z,72.61
2023-02-12T12:26:13.095Z,72.80
2023-02-12T12:28:51.370Z,72.44
2023-02-12T12:31:24.590Z,72.68
2023-02-12T12:34:09.328Z,73.01
2023-02-12T12:37:03.459Z,72.72
2023-02-12T12:39:42.442Z,72.57
2023-02-12T12:42:30.388Z,72.40
2023-02-12T12:45:15.264Z,72.38
2023-02-12T12:48:15.396Z,72.72
2023-02-12T12:51:03.546Z,71.95
2023-02-12T12:53:57.515Z,72.16
2023-02-12T12:56:39.157Z,72.19
2023-02-12T12:59:28.452Z,72.09
2023-02-12T13:02:13.842Z,72.21
2023-02-12T13:04:46.522Z,72.73
2023-02-12T13:07:46.957Z,72.86
2023-02-12T13:10:13.459Z,72.69
2023-02-12T13:13:01.268Z,73.13
2023-02-12T13:15:45.956Z,72.78
2023-02-12T13:18:31.489Z,72.94
2023-02-12T13:21:42.365Z,72.63
2023-02-12T13:24:30.222Z,73.03
2023-02-12T13:26:58.518Z,72.68
2023-02-12T13:29:51.707Z,73.00
2023-02-12T13:32:38.560Z,72.49
2023-02-12T13:35:07.482Z,73.12
2023-02-12T13:37:40.138Z,72.59
2023-02-12T13:40:09.063Z,72.50
2023-02-12T13:42:46.693Z,73.00
2023-02-12T13:45:22.158Z,72.82
2023-02-12T13:47:54.647Z,72.28
2023-02-12T13:50:48.348Z,72.75
2023-02-12T13:53:31.206Z,72.50
2023-02-12T13:56:07.233Z,72.50
2023-02-12T13:58:39.493Z,72.65
2023-02-12T14:01:33.401Z,72.68
2023-02-12T14:04:22.190Z,72.63
2023-02-12T14:07:04.358Z,72.93
2023-02-12T14:09:43.637Z,72.40
2023-02-12T14:12:25.534Z,72.84
2023-02-12T14:14:56.561Z,72.73
2023-02-12T14:17:29.175Z,72.82
2023-02-12T14:19:56.948Z,72.69
2023-02-12T14:22:26.525Z,72.89
2023-02-12T14:24:55.941Z,72.91
2023-02-12T14:27:50.206Z,72.79
2023-02-12T14:30:16.706Z,72.71
2023-02-12T14:32:46.358Z,72.45
2023-02-12T14:35:28.066Z,72.50
2023-02-12T14:38:15.722Z,72.65
2023-02-12T14:40:47.728Z,72.54
2023-02-12T14:43:28.544Z,72.85
2023-02-12T14:45:57.710Z,72.59
2023-02-12T14:48:44.874Z,72.11
2023-02-12T14:51:20.360Z,72.75
2023-02-12T14:53:48.615Z,72.73
2023-02-12T14:56:20.988Z,72.59
2023-02-12T14:58:49.532Z,72.84
2023-02-12T15:01:16.966Z,73.23
2023-02-12T15:03:51.139Z,73.08
2023-02-12T15:06:37.775Z,72.94
2023-02-12T15:09:16.510Z,72.78
2023-02-12T15:11:52.613Z,72.98
2023-02-12T15:14:24.745Z,72.68
2023-02-12T15:17:06.191Z,72.80
2023-02-12T15:20:02.737Z,73.13
2023-02-12T15:22:38.600Z,73.29
2023-02-12T15:25:27.749Z,73.31
2023-02-12T15:28:33.568Z,73.11
2023-02-12T15:31:05.199Z,73.13
2023-02-12T15:33:35.432Z,72.97
2023-02-12T15:36:03.670Z,73.12
2023-02-12T15:38:39.935Z,72.92
2023-02-12T15:41:06.830Z,73.14
2023-02-12T15:43:36.049Z,73.52
2023-02-12T15:46:06.197Z,73.04
2023-02-12T15:48:36.149Z,73.32
2023-02-12T15:51:22.824Z,73.15
2023-02-12T15:53:49.867Z,73.58
2023-02-12T15:56:19.620Z,73.19
2023-02-12T15:58:54.699Z,73.80
2023-02-12T16:01:26.879Z,73.32
2023-02-12T16:03:59.185Z,73.32
2023-02-12T16:06:27.909Z,73.58
2023-02-12T16:09:17.397Z,73.51
2023-02-12T16:11:46.372Z,73.84
2023-02-12T16:14:25.706Z,73.93
2023-02-12T16:16:55.342Z,74.13
2023-02-12T16:19:27.822Z,74.05
2023-02-12T16:21:57.084Z,74.01
2023-02-12T16:24:31.355Z,74.00
2023-02-12T16:27:04.313Z,73.87
2023-02-12T16:29:33.679Z,73.93
2023-02-12T16:32:02.631Z,74.25
2023-02-12T16:34:38.933Z,73.98
2023-02-12T16:37:31.458Z,74.09
2023-02-12T16:39:58.166Z,74.43
2023-02-12T16:42:29.509Z,74.29
2023-02-12T16:44:56.615Z,74.22
2023-02-12T16:47:25.603Z,74.48
2023-02-12T16:50:02.306Z,74.48
2023-02-12T16:52:40.935Z,74.27
2023-02-12T16:55:16.172Z,74.39
2023-02-12T16:57:43.203Z,74.73
2023-02-12T17:00:15.645Z,74.85
2023-02-12T17:02:42.839Z,74.63
2023-02-12T17:05:10.384Z,74.51
2023-02-12T17:07:36.986Z,74.70
2023-02-12T17:10:06.253Z,74.85
2023-02-12T17:12:32.887Z,74.87
2023-02-12T17:15:04.821Z,74.50
2023-02-12T17:17:31.372Z,74.89
2023-02-12T17:19:57.890Z,74.70
2023-02-12T17:22:27.269Z,74.84
2023-02-12T17:24:54.890Z,74.66
2023-02-12T17:27:21.812Z,74.60
2023-02-12T17:29:48.538Z,74.92
2023-02-12T17:32:16.680Z,74.57
2023-02-12T17:34:48.824Z,74.84
2023-02-12T17:37:17.105Z,74.62
2023-02-12T17:39:43.748Z,74.53
2023-02-12T17:42:10.293Z,74.71
2023-02-12T17:44:36.896Z,74.73
2023-02-12T17:47:03.556Z,74.74
2023-02-12T17:49:30.787Z,75.04
2023-02-12T17:51:57.293Z,74.93
2023-02-12T17:54:24.003Z,74.77
2023-02-12T17:56:50.558Z,75.01
2023-02-12T17:59:17.056Z,75.04
2023-02-12T18:01:44.144Z,74.83
2023-02-12T18:04:10.737Z,74.79
2023-02-12T18:06:37.603Z,75.13
2023-02-12T18:09:04.306Z,74.96
2023-02-12T18:11:32.233Z,75.20
2023-02-12T18:13:59.998Z,74.94
2023-02-12T18:16:30.799Z,75.09
2023-02-12T18:18:59.901Z,75.21
2023-02-12T18:21:26.824Z,75.23
2023-02-12T18:23:54.365Z,75.52
2023-02-12T18:26:21.302Z,75.31
2023-02-12T18:28:48.078Z,75.46
2023-02-12T18:31:14.830Z,75.39
2023-02-12T18:33:41.947Z,75.61
2023-02-12T18:36:12.080Z,75.58
2023-02-12T18:38:40.595Z,75.52
2023-02-12T18:41:20.121Z,75.70
2023-02-12T18:43:47.256Z,75.42
2023-02-12T18:46:20.528Z,75.63
2023-02-12T18:48:47.470Z,75.57
2023-02-12T18:51:21.083Z,76.05
2023-02-12T18:53:48.458Z,75.81
2023-02-12T18:56:15.034Z,75.86
2023-02-12T18:58:41.557Z,75.97
2023-02-12T19:01:18.597Z,75.88
2023-02-12T19:03:46.278Z,76.20
2023-02-12T19:06:13.242Z,76.06
2023-02-12T19:08:40.247Z,76.43
2023-02-12T19:11:08.506Z,76.46
2023-02-12T19:13:35.320Z,76.31
2023-02-12T19:16:18.712Z,76.65
2023-02-12T19:18:48.667Z,76.29
2023-02-12T19:21:18.993Z,76.39
2023-02-12T19:23:45.612Z,76.34
2023-02-12T19:26:17.475Z,76.37
2023-02-12T19:28:44.055Z,76.47
2023-02-12T19:31:15.311Z,76.74
2023-02-12T19:33:43.105Z,76.78
2023-02-12T19:36:11.902Z,77.02
2023-02-12T19:38:38.911Z,76.80
2023-02-12T19:41:14.774Z,76.98
2023-02-12T19:43:41.348Z,76.95
2023-02-12T19:46:15.194Z,77.07
2023-02-12T19:48:42.861Z,76.88
2023-02-12T19:51:13.842Z,76.95
2023-02-12T19:53:40.569Z,76.79
2023-02-12T19:56:07.498Z,77.15
2023-02-12T19:58:34.391Z,77.00
2023-02-12T20:01:01.077Z,77.44
2023-02-12T20:03:28.756Z,77.23
2023-02-12T20:06:09.736Z,77.35
2023-02-12T20:08:37.684Z,77.55
2023-02-12T20:11:09.348Z,77.37
2023-02-12T20:13:36.566Z,77.17
2023-02-12T20:16:07.807Z,77.36
2023-02-12T20:18:34.770Z,77.52
2023-02-12T20:21:02.303Z,77.69
2023-02-12T20:23:28.824Z,77.52
2023-02-12T20:25:55.359Z,77.49
2023-02-12T20:28:21.884Z,77.59
2023-02-12T20:30:48.791Z,77.48
2023-02-12T20:33:15.557Z,77.48
2023-02-12T20:35:42.074Z,77.79
2023-02-12T20:38:08.707Z,78.18
2023-02-12T20:40:35.277Z,78.08
2023-02-12T20:43:03.146Z,77.96
2023-02-12T20:45:29.736Z,78.08
2023-02-12T20:47:56.410Z,77.84
2023-02-12T20:50:22.907Z,78.09
2023-02-12T20:52:49.664Z,77.88
2023-02-12T20:55:16.468Z,77.80
2023-02-12T20:57:43.114Z,78.08
2023-02-12T21:00:10.171Z,77.91
2023-02-12T21:02:36.690Z,78.07
2023-02-12T21:05:03.378Z,78.08
2023-02-12T21:07:29.924Z,77.67
2023-02-12T21:09:56.450Z,77.82
2023-02-12T21:12:23.004Z,77.78
2023-02-12T21:14:49.567Z,77.91
2023-02-12T21:17:20.208Z,77.96
2023-02-12T21:19:46.775Z,78.06
2023-02-12T21:22:13.286Z,78.10
2023-02-12T21:24:39.795Z,77.76
2023-02-12T21:27:06.796Z,78.19
2023-02-12T21:29:33.478Z,78.03
2023-02-12T21:32:03.063Z,77.90
2023-02-12T21:34:29.787Z,78.22
2023-02-12T21:36:56.898Z,78.16
2023-02-12T21:39:27.333Z,78.31
2023-02-12T21:41:58.087Z,77.94
2023-02-12T21:44:26.019Z,78.14
2023-02-12T21:46:53.217Z,78.36
2023-02-12T21:49:25.088Z,77.91
2023-02-12T21:51:55.114Z,78.46
2023-02-12T21:54:22.135Z,78.32
2023-02-12T21:56:50.188Z,77.96
2023-02-12T21:59:17.890Z,78.29
2023-02-12T22:01:52.967Z,77.95
2023-02-12T22:04:20.184Z,78.21
2023-02-12T22:06:48.747Z,78.05
2023-02-12T22:09:18.812Z,78.16
2023-02-12T22:11:45.484Z,77.84
2023-02-12T22:14:16.161Z,78.01
2023-02-12T22:16:43.439Z,78.12
2023-02-12T22:19:10.215Z,77.94
2023-02-12T22:21:40.201Z,78.05
2023-02-12T22:24:09.588Z,78.19
2023-02-12T22:26:36.952Z,77.88
2023-02-12T22:29:09.154Z,78.07
2023-02-12T22:31:38.064Z,77.91
2023-02-12T22:34:17.418Z,77.67
2023-02-12T22:36:44.956Z,77.73
2023-02-12T22:39:13.180Z,77.96
2023-02-12T22:41:41.989Z,77.88
2023-02-12T22:44:10.409Z,78.30
2023-02-12T22:46:36.872Z,78.27
2023-02-12T22:49:03.528Z,78.06
2023-02-12T22:51:32.219Z,78.16
2023-02-12T22:53:59.330Z,78.24
2023-02-12T22:56:26.561Z,78.06
2023-02-12T22:58:58.236Z,78.16
2023-02-12T23:01:28.328Z,78.27
2023-02-12T23:03:55.515Z,78.29
2023-02-12T23:06:25.034Z,78.16
2023-02-12T23:08:53.374Z,78.21
2023-02-12T23:11:20.633Z,77.83
2023-02-12T23:13:47.520Z,77.84
2023-02-12T23:16:16.875Z,78.06
2023-02-12T23:18:43.761Z,77.96
2023-02-12T23:21:10.452Z,78.25
2023-02-12T23:23:37.115Z,77.91
2023-02-12T23:26:03.742Z,77.95
2023-02-12T23:28:30.981Z,78.51
2023-02-12T23:30:58.349Z,78.43
2023-02-12T23:33:25.089Z,78.36
2023-02-12T23:35:51.638Z,78.45
2023-02-12T23:38:18.674Z,78.10
2023-02-12T23:40:47.030Z,78.09
2023-02-12T23:43:13.731Z,78.08
2023-02-12T23:45:40.279Z,78.05
2023-02-12T23:48:06.825Z,78.01
2023-02-12T23:50:33.453Z,78.13
2023-02-12T23:53:00.095Z,77.91
2023-02-12T23:55:26.919Z,78.29
2023-02-12T23:57:53.633Z,78.48
